createdAt,value
2018-10-11T00:01:06.121Z,81.49
2018-10-11T00:02:06.087Z,81.78
2018-10-11T00:03:59.413Z,81.97
2018-10-11T00:04:59.371Z,81.97
2018-10-11T00:06:52.196Z,82.07
2018-10-11T00:07:52.136Z,81.49
2018-10-11T00:09:45.442Z,81.82
2018-10-11T00:10:45.408Z,81.78
2018-10-11T00:12:38.753Z,81.97
2018-10-11T00:13:38.697Z,81.82
2018-10-11T00:15:32.005Z,81.88
2018-10-11T00:16:31.971Z,81.88
2018-10-11T00:18:25.301Z,81.68
2018-10-11T00:19:25.243Z,81.97
2018-10-11T00:21:18.543Z,82.07
2018-10-11T00:22:18.512Z,81.78
2018-10-11T00:24:11.828Z,81.88
2018-10-11T00:25:11.779Z,82.07
2018-10-11T00:27:05.108Z,81.49
2018-10-11T00:28:05.068Z,81.88
2018-10-11T00:29:58.376Z,81.78
2018-10-11T00:30:58.324Z,81.88
2018-10-11T00:32:51.649Z,81.97
2018-10-11T00:33:51.594Z,81.68
2018-10-11T00:35:44.408Z,82.07
2018-10-11T00:36:44.368Z,81.88
2018-10-11T00:38:37.688Z,81.88
2018-10-11T00:39:37.638Z,81.78
2018-10-11T00:41:30.948Z,81.78
2018-10-11T00:42:30.922Z,81.78
2018-10-11T00:44:23.735Z,81.97
2018-10-11T00:45:23.678Z,81.78
2018-10-11T00:47:16.496Z,81.68
2018-10-11T00:48:16.459Z,81.78
2018-10-11T00:50:09.768Z,81.97
2018-10-11T00:51:09.718Z,81.88
2018-10-11T00:53:03.034Z,81.97
2018-10-11T00:54:03.003Z,82.26
2018-10-11T00:55:56.343Z,82.07
2018-10-11T00:56:56.275Z,81.78
2018-10-11T00:58:49.603Z,81.68
2018-10-11T00:59:49.554Z,81.88
2018-10-11T01:01:42.938Z,81.78
2018-10-11T01:02:42.814Z,81.78
2018-10-11T01:04:36.129Z,81.59
2018-10-11T01:05:36.079Z,81.68
2018-10-11T01:07:29.385Z,81.84
2018-10-11T01:08:29.350Z,81.93
2018-10-11T01:10:22.650Z,81.84
2018-10-11T01:11:22.617Z,82.03
2018-10-11T01:13:15.920Z,82.03
2018-10-11T01:14:15.879Z,82.22
2018-10-11T01:16:09.194Z,82.12
2018-10-11T01:17:09.155Z,81.84
2018-10-11T01:19:02.440Z,82.70
2018-10-11T01:20:02.412Z,82.51
2018-10-11T01:21:55.741Z,82.31
2018-10-11T01:22:55.695Z,82.51
2018-10-11T01:24:48.991Z,82.12
2018-10-11T01:25:48.955Z,82.22
2018-10-11T01:27:42.275Z,82.03
2018-10-11T01:28:42.221Z,82.22
2018-10-11T01:30:35.545Z,82.31
2018-10-11T01:31:35.497Z,82.89
2018-10-11T01:33:28.791Z,82.89
2018-10-11T01:34:28.762Z,82.41
2018-10-11T01:36:22.068Z,82.70
2018-10-11T01:37:22.023Z,82.37
2018-10-11T01:39:15.330Z,82.46
2018-10-11T01:40:15.286Z,82.46
2018-10-11T01:42:08.607Z,82.56
2018-10-11T01:43:08.553Z,82.28
2018-10-11T01:45:01.868Z,82.46
2018-10-11T01:46:01.828Z,82.46
2018-10-11T01:47:55.144Z,82.65
2018-10-11T01:48:55.086Z,82.37
2018-10-11T01:50:48.389Z,82.75
2018-10-11T01:51:48.359Z,82.75
2018-10-11T01:53:41.172Z,82.75
2018-10-11T01:54:41.131Z,82.84
2018-10-11T01:56:34.472Z,82.65
2018-10-11T01:57:34.397Z,82.84
2018-10-11T01:59:27.700Z,82.28
2018-10-11T02:00:27.657Z,82.65
2018-10-11T02:02:20.977Z,83.13
2018-10-11T02:03:20.933Z,82.75
2018-10-11T02:05:14.228Z,82.75
2018-10-11T02:06:14.196Z,82.75
2018-10-11T02:08:07.509Z,82.65
2018-10-11T02:09:07.454Z,82.94
2018-10-11T02:11:00.763Z,83.04
2018-10-11T02:12:00.727Z,82.94
2018-10-11T02:13:54.046Z,82.65
2018-10-11T02:14:53.986Z,82.65
2018-10-11T02:16:47.287Z,82.75
2018-10-11T02:17:47.252Z,82.75
2018-10-11T02:19:40.563Z,82.75
2018-10-11T02:20:40.518Z,82.84
2018-10-11T02:22:33.828Z,82.75
2018-10-11T02:23:33.784Z,82.75
2018-10-11T02:25:27.082Z,82.75
2018-10-11T02:26:27.056Z,82.75
2018-10-11T02:28:20.362Z,82.75
2018-10-11T02:29:20.320Z,83.70
2018-10-11T02:31:13.614Z,82.75
2018-10-11T02:32:13.649Z,83.70
2018-10-11T02:34:06.889Z,83.51
2018-10-11T02:35:06.840Z,83.61
2018-10-11T02:37:00.143Z,82.79
2018-10-11T02:38:00.105Z,82.79
2018-10-11T02:39:53.418Z,82.89
2018-10-11T02:40:53.363Z,83.08
2018-10-11T02:42:46.673Z,83.08
2018-10-11T02:43:46.635Z,83.08
2018-10-11T02:45:39.953Z,83.08
2018-10-11T02:46:39.912Z,83.17
2018-10-11T02:48:33.207Z,82.89
2018-10-11T02:49:33.176Z,82.89
2018-10-11T02:51:26.489Z,82.51
2018-10-11T02:52:26.449Z,82.41
2018-10-11T02:54:19.764Z,82.51
2018-10-11T02:55:19.713Z,82.51
2018-10-11T02:57:13.024Z,82.51
2018-10-11T02:58:12.988Z,82.60
2018-10-11T03:00:05.810Z,82.60
2018-10-11T03:01:05.761Z,82.60
2018-10-11T03:02:59.055Z,82.41
2018-10-11T03:03:59.024Z,82.41
2018-10-11T03:05:52.354Z,82.98
2018-10-11T03:06:52.315Z,82.31
2018-10-11T03:08:45.595Z,82.70
2018-10-11T03:09:45.560Z,82.31
2018-10-11T03:11:38.875Z,82.51
2018-10-11T03:12:38.821Z,82.51
2018-10-11T03:14:31.625Z,82.70
2018-10-11T03:15:31.589Z,82.51
2018-10-11T03:17:24.903Z,82.41
2018-10-11T03:18:24.864Z,82.51
2018-10-11T03:20:18.167Z,82.51
2018-10-11T03:21:18.125Z,82.70
2018-10-11T03:23:10.951Z,82.41
2018-10-11T03:24:10.961Z,82.60
2018-10-11T03:26:03.726Z,82.51
2018-10-11T03:27:03.685Z,82.79
2018-10-11T03:28:56.977Z,82.70
2018-10-11T03:29:56.945Z,82.31
2018-10-11T03:31:50.279Z,82.41
2018-10-11T03:32:50.211Z,82.79
2018-10-11T03:34:43.532Z,82.79
2018-10-11T03:35:43.502Z,82.89
2018-10-11T03:37:36.817Z,82.70
2018-10-11T03:38:36.775Z,82.70
2018-10-11T03:40:29.570Z,82.79
2018-10-11T03:41:29.537Z,82.70
2018-10-11T03:43:22.348Z,82.79
2018-10-11T03:44:22.323Z,82.79
2018-10-11T03:46:15.133Z,82.89
2018-10-11T03:47:15.067Z,82.79
2018-10-11T03:49:08.368Z,82.70
2018-10-11T03:50:08.335Z,82.89
2018-10-11T03:52:01.165Z,82.70
2018-10-11T03:53:01.121Z,82.79
2018-10-11T03:54:53.942Z,82.79
2018-10-11T03:55:53.883Z,82.41
2018-10-11T03:57:47.213Z,82.37
2018-10-11T03:58:47.159Z,82.94
2018-10-11T04:00:39.975Z,82.56
2018-10-11T04:01:39.936Z,83.04
2018-10-11T04:03:33.257Z,82.84
2018-10-11T04:04:33.203Z,82.18
2018-10-11T04:06:26.498Z,82.65
2018-10-11T04:07:26.490Z,82.84
2018-10-11T04:09:19.797Z,82.56
2018-10-11T04:10:19.745Z,82.46
2018-10-11T04:12:13.042Z,82.65
2018-10-11T04:13:13.012Z,82.75
2018-10-11T04:15:06.318Z,82.61
2018-10-11T04:16:06.290Z,82.71
2018-10-11T04:17:59.574Z,83.18
2018-10-11T04:18:59.547Z,82.52
2018-10-11T04:20:52.862Z,83.09
2018-10-11T04:21:52.798Z,82.81
2018-10-11T04:23:46.124Z,82.71
2018-10-11T04:24:46.429Z,82.71
2018-10-11T04:26:39.393Z,83.18
2018-10-11T04:27:39.324Z,83.57
2018-10-11T04:29:32.633Z,83.47
2018-10-11T04:30:32.598Z,83.47
2018-10-11T04:32:25.408Z,83.57
2018-10-11T04:33:25.362Z,83.57
2018-10-11T04:35:18.686Z,83.28
2018-10-11T04:36:18.629Z,83.57
2018-10-11T04:38:11.444Z,83.09
2018-10-11T04:39:11.400Z,83.38
2018-10-11T04:41:04.230Z,83.18
2018-10-11T04:42:04.170Z,83.76
2018-10-11T04:43:57.481Z,83.47
2018-10-11T04:44:57.445Z,83.28
2018-10-11T04:46:50.269Z,83.95
2018-10-11T04:47:50.218Z,83.76
2018-10-11T04:49:43.512Z,83.28
2018-10-11T04:50:43.480Z,83.47
2018-10-11T04:52:36.780Z,83.57
2018-10-11T04:53:36.827Z,83.47
2018-10-11T04:55:30.073Z,83.38
2018-10-11T04:56:30.009Z,83.67
2018-10-11T04:58:23.323Z,83.47
2018-10-11T04:59:23.282Z,83.38
2018-10-11T05:01:16.108Z,83.76
2018-10-11T05:02:16.059Z,83.38
2018-10-11T05:04:09.350Z,83.67
2018-10-11T05:05:09.338Z,83.76
2018-10-11T05:07:02.635Z,83.57
2018-10-11T05:08:02.590Z,83.86
2018-10-11T05:09:55.888Z,83.28
2018-10-11T05:10:55.859Z,84.05
2018-10-11T05:12:48.665Z,84.05
2018-10-11T05:13:48.619Z,83.47
2018-10-11T05:15:41.444Z,83.57
2018-10-11T05:16:41.378Z,83.57
2018-10-11T05:18:34.704Z,83.38
2018-10-11T05:19:34.654Z,83.47
2018-10-11T05:21:28.033Z,83.47
2018-10-11T05:22:27.918Z,83.47
2018-10-11T05:24:21.214Z,83.09
2018-10-11T05:25:21.190Z,83.28
2018-10-11T05:27:13.999Z,83.28
2018-10-11T05:28:13.954Z,83.18
2018-10-11T05:30:07.246Z,83.28
2018-10-11T05:31:07.210Z,83.38
2018-10-11T05:33:00.027Z,83.47
2018-10-11T05:33:59.985Z,83.47
2018-10-11T05:35:53.280Z,83.28
2018-10-11T05:36:53.246Z,83.38
2018-10-11T05:38:46.563Z,83.57
2018-10-11T05:39:46.512Z,83.28
2018-10-11T05:41:39.836Z,83.57
2018-10-11T05:42:39.777Z,83.47
2018-10-11T05:44:32.684Z,83.95
2018-10-11T05:45:32.545Z,83.95
2018-10-11T05:47:25.841Z,83.76
2018-10-11T05:48:25.813Z,83.76
2018-10-11T05:50:18.651Z,83.76
2018-10-11T05:51:18.574Z,83.57
2018-10-11T05:53:11.877Z,84.14
2018-10-11T05:54:11.836Z,84.05
2018-10-11T05:56:05.176Z,83.80
2018-10-11T05:57:05.121Z,83.95
2018-10-11T05:58:58.411Z,83.28
2018-10-11T05:59:58.388Z,83.80
2018-10-11T06:01:51.720Z,83.57
2018-10-11T06:02:51.668Z,83.28
2018-10-11T06:04:44.460Z,83.99
2018-10-11T06:05:44.427Z,83.90
2018-10-11T06:07:37.735Z,83.70
2018-10-11T06:08:37.685Z,83.70
2018-10-11T06:10:30.507Z,83.61
2018-10-11T06:11:30.456Z,83.61
2018-10-11T06:13:23.772Z,83.61
2018-10-11T06:14:23.721Z,83.51
2018-10-11T06:16:17.044Z,83.61
2018-10-11T06:17:16.990Z,83.33
2018-10-11T06:19:09.916Z,83.61
2018-10-11T06:20:09.753Z,83.23
2018-10-11T06:22:03.053Z,83.61
2018-10-11T06:23:03.012Z,83.23
2018-10-11T06:24:56.429Z,83.33
2018-10-11T06:25:56.359Z,83.61
2018-10-11T06:27:49.123Z,83.42
2018-10-11T06:28:49.091Z,83.61
2018-10-11T06:30:41.909Z,83.42
2018-10-11T06:31:41.857Z,83.33
2018-10-11T06:33:35.153Z,83.42
2018-10-11T06:34:35.130Z,83.33
2018-10-11T06:36:28.482Z,83.42
2018-10-11T06:37:28.400Z,83.33
2018-10-11T06:39:21.692Z,83.42
2018-10-11T06:40:21.672Z,83.42
2018-10-11T06:42:15.004Z,83.23
2018-10-11T06:43:14.930Z,83.51
2018-10-11T06:45:08.249Z,83.51
2018-10-11T06:46:08.213Z,83.42
2018-10-11T06:48:01.503Z,83.51
2018-10-11T06:49:01.461Z,83.80
2018-10-11T06:50:54.780Z,83.46
2018-10-11T06:51:54.739Z,83.46
2018-10-11T06:53:47.548Z,83.37
2018-10-11T06:54:47.508Z,83.46
2018-10-11T06:56:40.327Z,83.42
2018-10-11T06:57:40.273Z,83.84
2018-10-11T06:59:33.572Z,83.37
2018-10-11T07:00:33.540Z,82.65
2018-10-11T07:02:26.366Z,83.46
2018-10-11T07:03:26.306Z,83.84
2018-10-11T07:05:19.624Z,83.46
2018-10-11T07:06:19.584Z,83.75
2018-10-11T07:08:12.406Z,83.65
2018-10-11T07:09:12.345Z,83.84
2018-10-11T07:11:05.655Z,83.56
2018-10-11T07:12:05.609Z,83.46
2018-10-11T07:13:59.015Z,83.27
2018-10-11T07:14:58.882Z,83.75
2018-10-11T07:16:51.731Z,83.46
2018-10-11T07:17:51.659Z,83.37
2018-10-11T07:19:44.950Z,83.46
2018-10-11T07:20:44.916Z,82.70
2018-10-11T07:22:38.236Z,82.89
2018-10-11T07:23:38.190Z,83.03
2018-10-11T07:25:31.482Z,83.31
2018-10-11T07:26:31.457Z,83.12
2018-10-11T07:28:24.270Z,83.12
2018-10-11T07:29:24.223Z,82.83
2018-10-11T07:31:17.526Z,82.64
2018-10-11T07:32:17.481Z,82.64
2018-10-11T07:34:10.306Z,82.87
2018-10-11T07:35:10.351Z,82.59
2018-10-11T07:37:03.635Z,82.49
2018-10-11T07:38:03.553Z,82.68
2018-10-11T07:39:56.872Z,82.20
2018-10-11T07:40:56.862Z,81.96
2018-10-11T07:42:49.646Z,82.06
2018-10-11T07:43:49.603Z,81.86
2018-10-11T07:45:42.898Z,81.48
2018-10-11T07:46:42.870Z,82.34
2018-10-11T07:48:36.177Z,81.23
2018-10-11T07:49:36.132Z,82.19
2018-10-11T07:51:29.434Z,80.94
2018-10-11T07:52:29.403Z,81.52
2018-10-11T07:54:22.718Z,81.13
2018-10-11T07:55:22.671Z,80.89
2018-10-11T07:57:15.973Z,81.18
2018-10-11T07:58:15.937Z,80.79
2018-10-11T08:00:09.257Z,80.74
2018-10-11T08:01:09.260Z,80.16
2018-10-11T08:03:02.513Z,80.16
2018-10-11T08:04:02.479Z,80.45
2018-10-11T08:05:55.822Z,80.16
2018-10-11T08:06:55.753Z,79.72
2018-10-11T08:08:49.141Z,80.68
2018-10-11T08:09:49.037Z,79.72
2018-10-11T08:11:42.557Z,79.91
2018-10-11T08:12:42.342Z,80.68
2018-10-11T08:14:35.191Z,79.72
2018-10-11T08:15:35.122Z,80.11
2018-10-11T08:17:28.695Z,80.15
2018-10-11T08:18:28.397Z,79.38
2018-10-11T08:20:21.722Z,79.28
2018-10-11T08:21:21.674Z,79.57
2018-10-11T08:23:14.983Z,79.38
2018-10-11T08:24:15.003Z,79.38
2018-10-11T08:26:08.589Z,79.38
2018-10-11T08:27:08.266Z,80.05
2018-10-11T08:29:01.518Z,79.38
2018-10-11T08:30:01.494Z,79.28
2018-10-11T08:31:54.810Z,79.32
2018-10-11T08:32:54.803Z,79.42
2018-10-11T08:34:48.079Z,79.13
2018-10-11T08:35:48.038Z,79.52
2018-10-11T08:37:41.442Z,79.61
2018-10-11T08:38:41.370Z,78.98
2018-10-11T08:40:34.643Z,78.78
2018-10-11T08:41:34.600Z,78.78
2018-10-11T08:43:27.977Z,78.98
2018-10-11T08:44:27.891Z,78.21
2018-10-11T08:46:21.191Z,79.11
2018-10-11T08:47:21.159Z,79.11
2018-10-11T08:49:14.054Z,78.06
2018-10-11T08:50:14.004Z,78.92
2018-10-11T08:52:06.766Z,78.06
2018-10-11T08:53:06.720Z,77.67
2018-10-11T08:55:00.041Z,78.09
2018-10-11T08:56:00.031Z,77.90
2018-10-11T08:57:52.835Z,78.19
2018-10-11T08:58:52.790Z,77.51
2018-10-11T09:00:45.631Z,77.26
2018-10-11T09:01:45.579Z,78.13
2018-10-11T09:03:39.003Z,77.08
2018-10-11T09:04:38.852Z,77.36
2018-10-11T09:06:32.167Z,77.46
2018-10-11T09:07:32.136Z,77.17
2018-10-11T09:09:25.498Z,77.01
2018-10-11T09:10:37.861Z,77.59
2018-10-11T09:12:18.754Z,78.08
2018-10-11T09:13:18.725Z,77.31
2018-10-11T09:15:11.546Z,78.21
2018-10-11T09:16:11.497Z,77.53
2018-10-11T09:18:04.832Z,77.34
2018-10-11T09:19:04.775Z,77.44
2018-10-11T09:20:59.102Z,77.25
2018-10-11T09:21:59.069Z,77.44
2018-10-11T09:23:52.410Z,77.15
2018-10-11T09:24:52.347Z,77.25
2018-10-11T09:26:45.677Z,77.06
2018-10-11T09:27:45.642Z,77.44
2018-10-11T09:29:38.965Z,77.19
2018-10-11T09:30:38.912Z,77.38
2018-10-11T09:32:31.726Z,76.80
2018-10-11T09:33:31.703Z,76.03
2018-10-11T09:35:25.028Z,76.26
2018-10-11T09:36:25.049Z,75.78
2018-10-11T09:38:18.308Z,75.92
2018-10-11T09:39:18.271Z,74.89
2018-10-11T09:41:11.088Z,73.48
2018-10-11T09:42:11.056Z,72.26
2018-10-11T09:44:04.385Z,69.30
2018-10-11T09:45:04.343Z,69.72
2018-10-11T09:46:57.157Z,68.69
2018-10-11T09:47:57.143Z,66.85
2018-10-11T09:49:50.475Z,66.02
2018-10-11T09:50:50.422Z,66.11
2018-10-11T09:52:43.243Z,63.21
2018-10-11T09:53:43.213Z,64.37
2018-10-11T09:55:36.549Z,61.11
2018-10-11T09:56:36.517Z,62.95
2018-10-11T09:58:29.811Z,60.55
2018-10-11T09:59:29.801Z,60.36
2018-10-11T10:01:22.638Z,59.13
2018-10-11T10:02:22.596Z,59.03
2018-10-11T10:04:15.926Z,59.03
2018-10-11T10:05:15.898Z,59.64
2018-10-11T10:07:09.243Z,55.50
2018-10-11T10:08:09.204Z,55.24
2018-10-11T10:10:02.601Z,52.84
2018-10-11T10:11:02.486Z,52.96
2018-10-11T10:12:55.832Z,52.33
2018-10-11T10:13:55.803Z,49.73
2018-10-11T10:15:49.133Z,48.22
2018-10-11T10:16:49.092Z,48.12
2018-10-11T10:18:42.421Z,44.83
2018-10-11T10:19:42.393Z,44.37
2018-10-11T10:21:35.762Z,44.29
2018-10-11T10:22:35.702Z,43.02
2018-10-11T10:24:29.024Z,42.73
2018-10-11T10:25:29.182Z,42.65
2018-10-11T10:27:22.601Z,42.24
2018-10-11T10:28:22.300Z,41.75
2018-10-11T10:30:15.627Z,42.59
2018-10-11T10:31:15.611Z,42.96
2018-10-11T10:33:08.949Z,44.01
2018-10-11T10:34:08.985Z,44.30
2018-10-11T10:36:02.237Z,45.37
2018-10-11T10:37:02.202Z,46.05
2018-10-11T10:38:55.528Z,45.25
2018-10-11T10:39:55.555Z,46.13
2018-10-11T10:41:48.844Z,47.54
2018-10-11T10:42:48.800Z,47.54
2018-10-11T10:44:43.124Z,48.20
2018-10-11T10:45:43.098Z,48.47
2018-10-11T10:47:36.438Z,49.34
2018-10-11T10:48:36.400Z,50.87
2018-10-11T10:50:29.705Z,50.77
2018-10-11T10:51:29.684Z,50.84
2018-10-11T10:53:23.037Z,51.01
2018-10-11T10:54:23.059Z,52.34
2018-10-11T10:56:16.301Z,52.83
2018-10-11T10:57:16.268Z,53.51
2018-10-11T10:59:09.110Z,52.80
2018-10-11T11:00:09.059Z,54.55
2018-10-11T11:02:02.404Z,55.30
2018-10-11T11:03:02.355Z,55.40
2018-10-11T11:04:55.688Z,55.68
2018-10-11T11:05:55.639Z,56.14
2018-10-11T11:07:48.974Z,56.92
2018-10-11T11:08:48.936Z,57.40
2018-10-11T11:10:42.246Z,58.53
2018-10-11T11:11:42.209Z,59.21
2018-10-11T11:13:35.539Z,59.31
2018-10-11T11:14:35.503Z,61.24
2018-10-11T11:16:28.812Z,60.27
2018-10-11T11:17:28.796Z,60.37
2018-10-11T11:19:22.140Z,60.82
2018-10-11T11:20:22.086Z,61.11
2018-10-11T11:22:15.408Z,61.02
2018-10-11T11:23:15.375Z,62.27
2018-10-11T11:25:08.759Z,62.66
2018-10-11T11:26:08.666Z,62.47
2018-10-11T11:28:01.516Z,63.92
2018-10-11T11:29:01.464Z,64.31
2018-10-11T11:30:54.337Z,63.43
2018-10-11T11:31:54.249Z,62.95
2018-10-11T11:33:47.582Z,64.11
2018-10-11T11:34:47.541Z,63.14
2018-10-11T11:36:40.366Z,63.14
2018-10-11T11:37:40.335Z,64.98
2018-10-11T11:39:33.661Z,63.89
2018-10-11T11:40:33.642Z,64.56
2018-10-11T11:42:26.935Z,64.18
2018-10-11T11:43:26.910Z,66.01
2018-10-11T11:45:20.232Z,66.11
2018-10-11T11:46:20.187Z,66.01
2018-10-11T11:48:13.511Z,64.69
2018-10-11T11:49:13.476Z,66.20
2018-10-11T11:51:06.807Z,66.78
2018-10-11T11:52:06.807Z,67.46
2018-10-11T11:53:59.587Z,66.69
2018-10-11T11:54:59.542Z,67.46
2018-10-11T11:56:52.883Z,66.50
2018-10-11T11:57:52.889Z,66.78
2018-10-11T11:59:45.678Z,67.52
2018-10-11T12:00:45.633Z,67.14
2018-10-11T12:02:39.040Z,67.14
2018-10-11T12:03:38.932Z,68.98
2018-10-11T12:05:32.269Z,68.88
2018-10-11T12:06:32.218Z,68.20
2018-10-11T12:08:25.537Z,67.91
2018-10-11T12:09:25.499Z,69.07
2018-10-11T12:11:18.995Z,69.17
2018-10-11T12:12:18.773Z,69.07
2018-10-11T12:14:12.091Z,69.94
2018-10-11T12:15:12.060Z,69.36
2018-10-11T12:17:04.909Z,70.81
2018-10-11T12:18:04.845Z,70.48
2018-10-11T12:19:58.182Z,70.48
2018-10-11T12:20:58.139Z,70.68
2018-10-11T12:22:51.469Z,69.62
2018-10-11T12:23:51.422Z,70.78
2018-10-11T12:25:44.237Z,70.39
2018-10-11T12:26:44.214Z,70.48
2018-10-11T12:28:37.719Z,70.48
2018-10-11T12:29:37.504Z,70.20
2018-10-11T12:31:30.814Z,70.29
2018-10-11T12:32:30.773Z,70.48
2018-10-11T12:34:24.113Z,70.97
2018-10-11T12:35:24.047Z,70.39
2018-10-11T12:37:16.879Z,71.74
2018-10-11T12:38:16.844Z,70.48
2018-10-11T12:40:10.154Z,70.00
2018-10-11T12:41:10.134Z,69.52
2018-10-11T12:43:03.136Z,69.90
2018-10-11T12:44:02.913Z,69.81
2018-10-11T12:45:56.245Z,68.55
2018-10-11T12:46:56.196Z,69.23
2018-10-11T12:48:49.015Z,69.04
2018-10-11T12:49:49.424Z,68.94
2018-10-11T12:51:41.812Z,69.13
2018-10-11T12:52:41.766Z,68.94
2018-10-11T12:54:35.106Z,69.42
2018-10-11T12:55:35.059Z,69.52
2018-10-11T12:57:28.399Z,70.20
2018-10-11T12:58:28.346Z,68.94
2018-10-11T13:00:21.644Z,68.94
2018-10-11T13:01:23.631Z,69.26
2018-10-11T13:03:14.993Z,68.20
2018-10-11T13:04:14.915Z,67.43
2018-10-11T13:06:07.731Z,67.72
2018-10-11T13:07:07.696Z,67.33
2018-10-11T13:09:01.035Z,67.52
2018-10-11T13:10:00.984Z,67.82
2018-10-11T13:11:54.320Z,67.33
2018-10-11T13:12:57.776Z,66.75
2018-10-11T13:14:47.617Z,67.56
2018-10-11T13:15:47.637Z,67.33
2018-10-11T13:17:43.387Z,68.88
2018-10-11T13:18:40.851Z,69.01
2018-10-11T13:20:34.174Z,67.08
2018-10-11T13:21:34.155Z,66.98
2018-10-11T13:23:27.475Z,67.85
2018-10-11T13:24:27.432Z,68.62
2018-10-11T13:26:20.750Z,68.72
2018-10-11T13:27:20.711Z,69.88
2018-10-11T13:29:14.056Z,69.01
2018-10-11T13:30:14.001Z,68.33
2018-10-11T13:32:07.305Z,68.04
2018-10-11T13:33:07.297Z,69.20
2018-10-11T13:35:00.638Z,67.46
2018-10-11T13:36:00.570Z,68.24
2018-10-11T13:37:53.907Z,65.92
2018-10-11T13:38:53.875Z,65.92
2018-10-11T13:40:47.339Z,67.36
2018-10-11T13:41:47.181Z,66.30
2018-10-11T13:43:40.502Z,67.27
2018-10-11T13:44:40.461Z,67.27
2018-10-11T13:46:33.299Z,67.75
2018-10-11T13:47:37.877Z,67.56
2018-10-11T13:49:26.577Z,67.17
2018-10-11T13:50:26.527Z,67.08
2018-10-11T13:52:22.350Z,66.01
2018-10-11T13:53:22.524Z,66.05
2018-10-11T13:55:15.429Z,66.72
2018-10-11T13:56:12.617Z,66.63
2018-10-11T13:58:05.957Z,66.05
2018-10-11T13:59:08.644Z,65.95
2018-10-11T14:00:59.257Z,65.85
2018-10-11T14:01:59.214Z,65.85
2018-10-11T14:03:52.527Z,64.79
2018-10-11T14:04:52.501Z,66.05
2018-10-11T14:06:45.828Z,66.24
2018-10-11T14:07:45.781Z,65.75
2018-10-11T14:09:39.091Z,64.79
2018-10-11T14:10:39.138Z,63.63
2018-10-11T14:12:32.396Z,65.66
2018-10-11T14:13:32.373Z,66.05
2018-10-11T14:15:25.692Z,64.89
2018-10-11T14:16:25.649Z,64.69
2018-10-11T14:18:18.967Z,64.79
2018-10-11T14:19:18.928Z,66.11
2018-10-11T14:21:12.272Z,65.56
2018-10-11T14:22:12.212Z,66.05
2018-10-11T14:24:05.540Z,65.37
2018-10-11T14:25:05.492Z,65.56
2018-10-11T14:26:58.820Z,66.11
2018-10-11T14:27:58.796Z,66.78
2018-10-11T14:29:52.132Z,66.40
2018-10-11T14:30:52.079Z,65.43
2018-10-11T14:32:45.471Z,65.72
2018-10-11T14:33:45.359Z,66.20
2018-10-11T14:35:38.168Z,66.40
2018-10-11T14:36:38.174Z,66.59
2018-10-11T14:38:31.022Z,67.75
2018-10-11T14:39:30.931Z,67.46
2018-10-11T14:41:24.285Z,67.52
2018-10-11T14:42:24.247Z,68.82
2018-10-11T14:44:17.580Z,67.52
2018-10-11T14:45:17.534Z,67.72
2018-10-11T14:47:10.864Z,69.07
2018-10-11T14:48:10.832Z,69.07
2018-10-11T14:50:04.165Z,68.88
2018-10-11T14:51:04.172Z,69.26
2018-10-11T14:52:57.433Z,69.17
2018-10-11T14:53:59.325Z,69.26
2018-10-11T14:55:50.703Z,69.36
2018-10-11T14:56:50.669Z,69.71
2018-10-11T14:58:43.993Z,70.39
2018-10-11T14:59:43.957Z,70.72
2018-10-11T15:01:37.263Z,70.58
2018-10-11T15:02:37.240Z,70.39
2018-10-11T15:04:30.572Z,71.55
2018-10-11T15:05:30.552Z,70.42
2018-10-11T15:07:23.843Z,70.32
2018-10-11T15:08:23.809Z,69.74
2018-10-11T15:10:17.179Z,69.26
2018-10-11T15:11:17.187Z,68.88
2018-10-11T15:13:10.400Z,69.10
2018-10-11T15:14:10.370Z,68.91
2018-10-11T15:16:03.708Z,68.04
2018-10-11T15:17:03.657Z,69.30
2018-10-11T15:18:56.969Z,68.24
2018-10-11T15:19:56.940Z,68.72
2018-10-11T15:21:50.279Z,67.75
2018-10-11T15:22:50.225Z,68.33
2018-10-11T15:24:43.069Z,67.46
2018-10-11T15:25:43.015Z,66.88
2018-10-11T15:27:36.333Z,67.56
2018-10-11T15:28:36.306Z,67.75
2018-10-11T15:30:29.635Z,67.36
2018-10-11T15:31:29.590Z,67.11
2018-10-11T15:33:22.900Z,66.20
2018-10-11T15:34:22.886Z,66.24
2018-10-11T15:36:15.720Z,67.01
2018-10-11T15:37:15.676Z,66.33
2018-10-11T15:39:09.002Z,65.66
2018-10-11T15:40:08.965Z,64.98
2018-10-11T15:42:02.294Z,65.85
2018-10-11T15:43:02.248Z,65.85
2018-10-11T15:44:55.559Z,66.14
2018-10-11T15:45:55.536Z,65.66
2018-10-11T15:47:48.366Z,65.85
2018-10-11T15:48:48.324Z,65.27
2018-10-11T15:50:41.672Z,66.33
2018-10-11T15:51:41.608Z,65.66
2018-10-11T15:53:34.919Z,65.72
2018-10-11T15:54:34.893Z,65.82
2018-10-11T15:56:28.212Z,66.59
2018-10-11T15:57:28.180Z,66.33
2018-10-11T15:59:21.494Z,66.40
2018-10-11T16:00:21.462Z,66.50
2018-10-11T16:02:14.778Z,65.92
2018-10-11T16:03:14.740Z,65.92
2018-10-11T16:05:07.553Z,66.88
2018-10-11T16:06:07.531Z,66.69
2018-10-11T16:08:00.856Z,67.27
2018-10-11T16:09:00.869Z,67.46
2018-10-11T16:10:53.665Z,67.27
2018-10-11T16:11:53.664Z,67.14
2018-10-11T16:13:46.941Z,67.33
2018-10-11T16:14:46.950Z,68.01
2018-10-11T16:16:40.828Z,68.20
2018-10-11T16:17:40.212Z,68.78
2018-10-11T16:19:33.497Z,69.36
2018-10-11T16:20:33.457Z,69.04
2018-10-11T16:22:26.791Z,68.84
2018-10-11T16:23:26.758Z,69.04
2018-10-11T16:25:20.072Z,69.90
2018-10-11T16:26:20.045Z,69.32
2018-10-11T16:28:13.372Z,70.00
2018-10-11T16:29:13.328Z,70.39
2018-10-11T16:31:06.643Z,71.06
2018-10-11T16:32:06.625Z,71.12
2018-10-11T16:33:59.932Z,71.32
2018-10-11T16:34:59.899Z,71.70
2018-10-11T16:36:53.210Z,71.90
2018-10-11T16:37:53.188Z,71.70
2018-10-11T16:39:46.007Z,72.15
2018-10-11T16:40:45.963Z,72.44
2018-10-11T16:42:39.297Z,71.86
2018-10-11T16:43:39.259Z,72.63
2018-10-11T16:45:32.563Z,72.89
2018-10-11T16:46:32.573Z,73.37
2018-10-11T16:48:25.874Z,73.18
2018-10-11T16:49:25.840Z,73.37
2018-10-11T16:51:19.132Z,73.85
2018-10-11T16:52:19.107Z,73.85
2018-10-11T16:54:12.432Z,74.05
2018-10-11T16:55:12.391Z,74.24
2018-10-11T16:57:05.699Z,74.20
2018-10-11T16:58:05.739Z,74.10
2018-10-11T16:59:59.000Z,74.40
2018-10-11T17:00:58.946Z,74.68
2018-10-11T17:02:51.760Z,74.40
2018-10-11T17:03:51.728Z,74.68
2018-10-11T17:05:45.058Z,74.88
2018-10-11T17:06:45.005Z,75.03
2018-10-11T17:08:37.834Z,75.32
2018-10-11T17:09:37.807Z,75.51
2018-10-11T17:11:31.115Z,75.61
2018-10-11T17:12:31.073Z,75.99
2018-10-11T17:14:23.899Z,75.71
2018-10-11T17:15:23.859Z,75.99
2018-10-11T17:17:16.661Z,75.80
2018-10-11T17:18:16.746Z,75.99
2018-10-11T17:20:09.466Z,76.48
2018-10-11T17:21:09.420Z,76.44
2018-10-11T17:23:02.735Z,76.15
2018-10-11T17:24:02.700Z,76.73
2018-10-11T17:25:56.034Z,76.73
2018-10-11T17:26:55.984Z,76.82
2018-10-11T17:28:49.305Z,77.59
2018-10-11T17:29:49.305Z,77.21
2018-10-11T17:31:42.611Z,77.31
2018-10-11T17:32:42.547Z,77.31
2018-10-11T17:34:35.855Z,78.23
2018-10-11T17:35:35.827Z,78.23
2018-10-11T17:37:29.151Z,77.75
2018-10-11T17:38:29.100Z,77.65
2018-10-11T17:40:22.401Z,77.94
2018-10-11T17:41:22.387Z,78.13
2018-10-11T17:43:15.205Z,78.03
2018-10-11T17:44:15.162Z,78.61
2018-10-11T17:46:07.992Z,78.33
2018-10-11T17:47:07.989Z,78.81
2018-10-11T17:49:01.282Z,78.52
2018-10-11T17:50:01.250Z,79.25
2018-10-11T17:51:54.605Z,78.86
2018-10-11T17:52:54.557Z,78.86
2018-10-11T17:54:47.865Z,78.67
2018-10-11T17:55:47.831Z,78.86
2018-10-11T17:57:41.162Z,78.67
2018-10-11T17:58:41.130Z,78.96
2018-10-11T18:00:34.432Z,78.86
2018-10-11T18:01:34.402Z,78.96
2018-10-11T18:03:27.368Z,79.63
2018-10-11T18:04:27.177Z,79.53
2018-10-11T18:06:20.493Z,79.73
2018-10-11T18:07:20.453Z,79.63
2018-10-11T18:09:13.812Z,79.73
2018-10-11T18:10:13.764Z,79.69
2018-10-11T18:12:07.081Z,79.30
2018-10-11T18:13:07.038Z,79.30
2018-10-11T18:15:00.404Z,79.40
2018-10-11T18:16:00.426Z,79.40
2018-10-11T18:17:53.717Z,79.50
2018-10-11T18:18:53.637Z,79.60
2018-10-11T18:20:46.968Z,79.60
2018-10-11T18:21:47.049Z,79.69
2018-10-11T18:23:40.257Z,79.69
2018-10-11T18:24:40.223Z,80.07
2018-10-11T18:26:33.025Z,79.60
2018-10-11T18:27:32.995Z,79.60
2018-10-11T18:29:26.338Z,79.69
2018-10-11T18:30:26.267Z,79.69
2018-10-11T18:32:19.078Z,79.60
2018-10-11T18:33:19.053Z,80.07
2018-10-11T18:35:11.881Z,79.88